createdAt,value
2019-05-07T00:01:18.398Z,4.81
2019-05-07T00:03:47.599Z,4.77
2019-05-07T00:06:16.905Z,4.72
2019-05-07T00:08:46.389Z,4.69
2019-05-07T00:11:15.604Z,4.66
2019-05-07T00:13:45.040Z,4.63
2019-05-07T00:16:14.513Z,4.59
2019-05-07T00:18:43.719Z,4.58
2019-05-07T00:21:12.941Z,4.55
2019-05-07T00:23:43.232Z,4.52
2019-05-07T00:26:13.331Z,4.50
2019-05-07T00:28:43.399Z,4.46
2019-05-07T00:31:13.255Z,4.45
2019-05-07T00:33:43.223Z,4.44
2019-05-07T00:36:23.136Z,4.46
2019-05-07T00:38:57.668Z,4.44
2019-05-07T00:41:36.777Z,4.42
2019-05-07T00:44:07.081Z,4.42
2019-05-07T00:46:36.655Z,4.38
2019-05-07T00:49:06.022Z,4.37
2019-05-07T00:51:36.045Z,4.33
2019-05-07T00:54:06.163Z,4.28
2019-05-07T00:56:35.640Z,4.24
2019-05-07T00:59:04.856Z,4.22
2019-05-07T01:01:34.944Z,4.19
2019-05-07T01:04:04.676Z,4.19
2019-05-07T01:06:33.976Z,4.18
2019-05-07T01:09:05.192Z,4.16
2019-05-07T01:11:34.820Z,4.16
2019-05-07T01:14:04.247Z,4.10
2019-05-07T01:16:33.554Z,4.09
2019-05-07T01:19:02.899Z,4.07
2019-05-07T01:21:32.650Z,4.06
2019-05-07T01:24:03.227Z,4.03
2019-05-07T01:26:33.291Z,3.99
2019-05-07T01:29:03.323Z,3.97
2019-05-07T01:31:37.807Z,3.95
2019-05-07T01:34:19.033Z,3.93
2019-05-07T01:36:48.395Z,3.90
2019-05-07T01:39:17.608Z,3.86
2019-05-07T01:41:46.908Z,3.83
2019-05-07T01:44:16.411Z,3.84
2019-05-07T01:46:45.621Z,3.86
2019-05-07T01:49:14.952Z,3.89
2019-05-07T01:51:44.413Z,3.94
2019-05-07T01:54:13.626Z,3.97
2019-05-07T01:56:42.914Z,3.98
2019-05-07T01:59:12.520Z,3.98
2019-05-07T02:01:42.953Z,4.00
2019-05-07T02:04:19.823Z,3.99
2019-05-07T02:07:06.994Z,3.96
2019-05-07T02:09:53.777Z,3.96
2019-05-07T02:12:26.345Z,3.95
2019-05-07T02:14:55.833Z,3.95
2019-05-07T02:17:25.198Z,3.93
2019-05-07T02:19:54.409Z,3.89
2019-05-07T02:22:23.707Z,3.85
2019-05-07T02:24:52.958Z,3.81
2019-05-07T02:27:22.271Z,3.80
2019-05-07T02:29:52.873Z,3.80
2019-05-07T02:32:24.055Z,3.78
2019-05-07T02:34:54.528Z,3.76
2019-05-07T02:37:37.629Z,3.77
2019-05-07T02:40:29.019Z,3.80
2019-05-07T02:42:58.257Z,3.82
2019-05-07T02:45:37.913Z,3.80
2019-05-07T02:48:07.198Z,3.81
2019-05-07T02:50:49.386Z,3.84
2019-05-07T02:53:27.910Z,3.91
2019-05-07T02:55:57.740Z,3.92
2019-05-07T02:58:26.965Z,3.94
2019-05-07T03:00:56.435Z,3.98
2019-05-07T03:03:25.955Z,3.99
2019-05-07T03:05:55.277Z,4.00
2019-05-07T03:08:27.566Z,3.98
2019-05-07T03:10:55.828Z,4.01
2019-05-07T03:13:25.165Z,4.07
2019-05-07T03:15:54.515Z,4.09
2019-05-07T03:18:24.155Z,4.09
2019-05-07T03:20:57.937Z,4.05
2019-05-07T03:23:34.200Z,4.06
2019-05-07T03:26:13.804Z,4.05
2019-05-07T03:28:53.560Z,4.04
2019-05-07T03:31:46.033Z,4.02
2019-05-07T03:34:36.776Z,4.01
2019-05-07T03:39:50.466Z,4.03
2019-05-07T03:42:19.724Z,4.04
2019-05-07T03:45:04.595Z,4.08
2019-05-07T03:47:39.180Z,4.09
2019-05-07T03:50:14.663Z,4.00
2019-05-07T03:52:43.187Z,3.91
2019-05-07T03:55:14.550Z,3.88
2019-05-07T03:57:44.345Z,3.85
2019-05-07T04:00:14.158Z,3.85
2019-05-07T04:02:44.008Z,3.81
2019-05-07T04:05:14.549Z,3.78
2019-05-07T04:07:44.012Z,3.73
2019-05-07T04:10:15.043Z,3.69
2019-05-07T04:12:44.715Z,3.65
2019-05-07T04:15:18.802Z,3.59
2019-05-07T04:17:45.491Z,3.62
2019-05-07T04:20:15.304Z,3.61
2019-05-07T04:22:44.526Z,3.64
2019-05-07T04:25:34.639Z,3.69
2019-05-07T04:28:33.376Z,3.72
2019-05-07T04:31:03.357Z,3.71
2019-05-07T04:33:37.013Z,3.70
2019-05-07T04:36:14.594Z,3.70
2019-05-07T04:38:44.312Z,3.73
2019-05-07T04:41:14.015Z,3.73
2019-05-07T04:43:43.916Z,3.74
2019-05-07T04:46:14.483Z,3.79
2019-05-07T04:48:44.385Z,3.81
2019-05-07T04:51:16.157Z,3.87
2019-05-07T04:53:45.539Z,3.90
2019-05-07T04:56:14.888Z,3.92
2019-05-07T04:58:44.147Z,3.96
2019-05-07T05:01:15.124Z,4.00
2019-05-07T05:03:44.355Z,4.02
2019-05-07T05:06:13.909Z,4.08
2019-05-07T05:08:43.848Z,4.21
2019-05-07T05:11:13.209Z,4.31
2019-05-07T05:13:44.479Z,4.36
2019-05-07T05:16:28.891Z,4.37
2019-05-07T05:18:59.028Z,4.43
2019-05-07T05:21:42.011Z,4.49
2019-05-07T05:24:15.022Z,4.45
2019-05-07T05:26:44.389Z,4.49
2019-05-07T05:29:13.600Z,4.53
2019-05-07T05:31:43.185Z,4.61
2019-05-07T05:34:13.204Z,4.54
2019-05-07T05:36:42.817Z,4.56
2019-05-07T05:39:13.158Z,4.62
2019-05-07T05:41:44.998Z,4.67
2019-05-07T05:44:28.458Z,4.68
2019-05-07T05:46:59.195Z,4.70
2019-05-07T05:49:28.412Z,4.77
2019-05-07T05:52:25.742Z,4.85
2019-05-07T05:54:59.225Z,5.00
2019-05-07T05:57:42.779Z,5.06
2019-05-07T06:00:32.842Z,5.18
2019-05-07T06:03:22.588Z,5.27
2019-05-07T06:06:01.928Z,5.29
2019-05-07T06:08:59.005Z,5.26
2019-05-07T06:11:35.376Z,5.27
2019-05-07T06:14:22.717Z,5.33
2019-05-07T06:17:13.936Z,5.38
2019-05-07T06:19:49.250Z,5.43
2019-05-07T06:22:35.085Z,5.54
2019-05-07T06:25:15.443Z,5.74
2019-05-07T06:27:44.968Z,5.92
2019-05-07T06:30:17.302Z,6.08
2019-05-07T06:32:46.790Z,6.22
2019-05-07T06:35:19.087Z,6.33
2019-05-07T06:37:48.868Z,6.40
2019-05-07T06:40:32.056Z,6.58
2019-05-07T06:43:07.812Z,6.60
2019-05-07T06:45:42.228Z,6.72
2019-05-07T06:48:12.768Z,6.88
2019-05-07T06:50:56.723Z,6.91
2019-05-07T06:53:32.998Z,6.59
2019-05-07T06:56:03.130Z,6.48
2019-05-07T06:58:38.242Z,6.46
2019-05-07T07:01:23.791Z,6.36
2019-05-07T07:04:07.796Z,6.20
2019-05-07T07:06:57.489Z,6.22
2019-05-07T07:09:44.672Z,6.25
2019-05-07T07:12:17.884Z,6.22
2019-05-07T07:14:47.420Z,6.35
2019-05-07T07:17:16.730Z,6.52
2019-05-07T07:19:46.053Z,6.64
2019-05-07T07:22:15.672Z,6.63
2019-05-07T07:24:44.896Z,6.62
2019-05-07T07:27:14.158Z,6.48
2019-05-07T07:29:52.801Z,6.48
2019-05-07T07:32:26.321Z,6.70
2019-05-07T07:34:55.727Z,6.68
2019-05-07T07:37:32.029Z,6.54
2019-05-07T07:40:22.474Z,6.47
2019-05-07T07:42:52.130Z,6.52
2019-05-07T07:45:23.020Z,6.54
2019-05-07T07:47:53.136Z,6.56
2019-05-07T07:50:22.603Z,6.58
2019-05-07T07:52:52.943Z,6.77
2019-05-07T07:55:29.060Z,7.11
2019-05-07T07:58:12.042Z,7.41
2019-05-07T08:00:59.065Z,7.67
2019-05-07T08:03:28.744Z,7.63
2019-05-07T08:05:58.502Z,8.04
2019-05-07T08:08:32.186Z,8.12
2019-05-07T08:11:02.383Z,8.00
2019-05-07T08:13:32.521Z,7.59
2019-05-07T08:16:02.552Z,7.19
2019-05-07T08:18:32.826Z,7.00
2019-05-07T08:21:02.613Z,6.95
2019-05-07T08:23:32.082Z,6.72
2019-05-07T08:26:02.557Z,6.65
2019-05-07T08:28:32.114Z,6.78
2019-05-07T08:31:17.505Z,6.81
2019-05-07T08:33:54.021Z,6.87
2019-05-07T08:36:23.476Z,7.16
2019-05-07T08:38:53.814Z,7.41
2019-05-07T08:41:24.758Z,7.44
2019-05-07T08:44:10.734Z,7.52
2019-05-07T08:46:53.406Z,7.63
2019-05-07T08:49:35.808Z,7.53
2019-05-07T08:52:03.327Z,7.29
2019-05-07T08:54:32.705Z,7.18
2019-05-07T08:57:02.675Z,7.35
2019-05-07T08:59:33.424Z,7.49
2019-05-07T09:02:03.234Z,7.59
2019-05-07T09:04:32.961Z,7.66
2019-05-07T09:07:03.012Z,7.60
2019-05-07T09:09:32.786Z,7.64
2019-05-07T09:12:03.047Z,7.41
2019-05-07T09:14:32.647Z,6.98
2019-05-07T09:17:02.791Z,7.45
2019-05-07T09:19:46.931Z,7.49
2019-05-07T09:22:04.441Z,7.70
2019-05-07T09:24:33.656Z,7.68
2019-05-07T09:27:28.222Z,7.59
2019-05-07T09:30:16.418Z,7.78
2019-05-07T09:32:59.063Z,8.07
2019-05-07T09:35:33.717Z,8.12
2019-05-07T09:38:05.448Z,7.79
2019-05-07T09:40:34.665Z,7.45
2019-05-07T09:43:04.005Z,7.44
2019-05-07T09:45:34.587Z,7.39
2019-05-07T09:48:05.340Z,7.30
2019-05-07T09:50:34.717Z,7.26
2019-05-07T09:53:04.318Z,7.40
2019-05-07T09:55:33.521Z,7.81
2019-05-07T09:58:02.779Z,8.25
2019-05-07T10:00:32.424Z,8.07
2019-05-07T10:03:01.761Z,8.23
2019-05-07T10:05:32.185Z,8.32
2019-05-07T10:08:02.178Z,8.39
2019-05-07T10:10:32.920Z,8.21
2019-05-07T10:13:08.031Z,8.10
2019-05-07T10:15:37.664Z,8.25
2019-05-07T10:18:13.422Z,8.12
2019-05-07T10:20:43.381Z,8.00
2019-05-07T10:23:22.954Z,8.01
2019-05-07T10:25:56.754Z,8.04
2019-05-07T10:28:26.113Z,8.06
2019-05-07T10:30:55.691Z,8.16
2019-05-07T10:33:24.928Z,8.36
2019-05-07T10:35:54.466Z,8.58
2019-05-07T10:38:23.908Z,8.91
2019-05-07T10:40:53.488Z,9.09
2019-05-07T10:43:23.080Z,8.91
2019-05-07T10:46:12.774Z,8.70
2019-05-07T10:48:49.562Z,8.61
2019-05-07T10:51:18.875Z,8.55
2019-05-07T10:53:48.685Z,8.27
2019-05-07T10:56:18.150Z,8.18
2019-05-07T10:58:47.434Z,8.33
2019-05-07T11:01:22.442Z,8.55
2019-05-07T11:03:51.843Z,8.76
2019-05-07T11:06:22.097Z,8.63
2019-05-07T11:08:53.252Z,8.50
2019-05-07T11:11:22.522Z,8.37
2019-05-07T11:13:56.133Z,8.30
2019-05-07T11:16:27.614Z,8.25
2019-05-07T11:18:56.827Z,8.27
2019-05-07T11:21:33.600Z,8.31
2019-05-07T11:24:05.396Z,8.33
2019-05-07T11:26:34.839Z,8.21
2019-05-07T11:29:05.549Z,8.20
2019-05-07T11:31:34.772Z,8.38
2019-05-07T11:34:04.997Z,8.79
2019-05-07T11:36:34.390Z,9.37
2019-05-07T11:39:05.956Z,9.27
2019-05-07T11:41:45.742Z,9.14
2019-05-07T11:44:19.566Z,8.92
2019-05-07T11:47:06.378Z,8.65
2019-05-07T11:49:53.531Z,8.58
2019-05-07T11:52:35.796Z,8.43
2019-05-07T11:55:04.647Z,8.14
2019-05-07T11:57:33.868Z,7.71
2019-05-07T12:00:03.388Z,7.23
2019-05-07T12:02:32.824Z,6.74
2019-05-07T12:05:02.305Z,6.61
2019-05-07T12:07:32.761Z,6.65
2019-05-07T12:10:04.899Z,6.96
2019-05-07T12:12:33.207Z,7.71
2019-05-07T12:15:02.592Z,7.74
2019-05-07T12:17:32.205Z,7.47
2019-05-07T12:20:02.347Z,7.33
2019-05-07T12:22:47.706Z,7.40
2019-05-07T12:25:19.572Z,8.15
2019-05-07T12:27:50.428Z,9.28
2019-05-07T12:30:51.826Z,9.40
2019-05-07T12:33:42.808Z,9.05
2019-05-07T12:36:15.487Z,8.89
2019-05-07T12:38:45.250Z,8.81
2019-05-07T12:41:29.858Z,8.73
2019-05-07T12:44:02.535Z,8.70
2019-05-07T12:46:33.345Z,8.60
2019-05-07T12:49:03.424Z,8.45
2019-05-07T12:51:38.093Z,8.35
2019-05-07T12:54:22.690Z,8.28
2019-05-07T12:56:52.236Z,8.33
2019-05-07T12:59:21.900Z,8.39
2019-05-07T13:02:18.325Z,8.27
2019-05-07T13:04:38.469Z,8.17
2019-05-07T13:07:26.841Z,8.17
2019-05-07T13:09:56.052Z,8.15
2019-05-07T13:12:25.331Z,7.99
2019-05-07T13:14:54.808Z,7.92
2019-05-07T13:17:24.050Z,7.80
2019-05-07T13:19:53.262Z,7.70
2019-05-07T13:22:22.608Z,7.76
2019-05-07T13:24:52.970Z,7.76
2019-05-07T13:27:22.260Z,8.20
2019-05-07T13:29:53.112Z,8.69
2019-05-07T13:32:23.236Z,9.18
2019-05-07T13:34:55.255Z,9.42
2019-05-07T13:37:27.547Z,9.80
2019-05-07T13:40:04.757Z,9.43
2019-05-07T13:42:45.630Z,9.00
2019-05-07T13:45:32.525Z,8.68
2019-05-07T13:48:12.125Z,8.76
2019-05-07T13:50:42.013Z,9.87
2019-05-07T13:53:12.362Z,10.47
2019-05-07T13:55:42.315Z,10.33
2019-05-07T13:58:14.249Z,9.96
2019-05-07T14:00:55.239Z,9.35
2019-05-07T14:03:24.643Z,8.96
2019-05-07T14:05:53.990Z,8.91
2019-05-07T14:08:24.679Z,9.09
2019-05-07T14:10:54.111Z,9.43
2019-05-07T14:13:23.339Z,10.42
2019-05-07T14:16:12.118Z,11.35
2019-05-07T14:18:41.690Z,11.19
2019-05-07T14:21:12.949Z,10.41
2019-05-07T14:23:42.767Z,9.96
2019-05-07T14:26:12.176Z,9.49
2019-05-07T14:28:42.286Z,9.03
2019-05-07T14:31:12.398Z,8.73
2019-05-07T14:33:53.970Z,8.37
2019-05-07T14:36:27.407Z,8.12
2019-05-07T14:38:58.016Z,7.89
2019-05-07T14:41:27.190Z,7.81
2019-05-07T14:44:02.610Z,7.51
2019-05-07T14:46:43.916Z,7.20
2019-05-07T14:49:02.884Z,7.05
2019-05-07T14:51:32.731Z,6.97
2019-05-07T14:54:02.136Z,7.04
2019-05-07T14:56:32.253Z,7.63
2019-05-07T14:59:02.411Z,8.57
2019-05-07T15:01:33.797Z,8.55
2019-05-07T15:04:03.006Z,8.02
2019-05-07T15:06:32.585Z,7.80
2019-05-07T15:09:01.893Z,7.71
2019-05-07T15:11:31.862Z,7.80
2019-05-07T15:14:02.644Z,7.79
2019-05-07T15:16:32.194Z,7.87
2019-05-07T15:19:01.901Z,7.81
2019-05-07T15:21:32.339Z,7.96
2019-05-07T15:24:02.436Z,8.19
2019-05-07T15:26:32.631Z,8.37
2019-05-07T15:29:12.093Z,8.98
2019-05-07T15:32:15.331Z,9.89
2019-05-07T15:34:44.805Z,10.64
2019-05-07T15:37:16.419Z,11.38
2019-05-07T15:39:45.783Z,11.68
2019-05-07T15:42:15.045Z,11.90
2019-05-07T15:44:44.281Z,12.09
2019-05-07T15:47:22.623Z,12.56
2019-05-07T15:49:51.857Z,12.56
2019-05-07T15:52:42.563Z,11.63
2019-05-07T15:55:12.025Z,11.63
2019-05-07T15:57:42.810Z,11.46
2019-05-07T16:00:14.956Z,10.93
2019-05-07T16:02:47.282Z,10.27
2019-05-07T16:05:18.286Z,10.23
2019-05-07T16:07:48.951Z,10.82
2019-05-07T16:10:18.387Z,11.13
2019-05-07T16:12:48.296Z,11.51
2019-05-07T16:15:17.906Z,11.31
2019-05-07T16:17:53.283Z,10.74
2019-05-07T16:20:22.876Z,10.04
2019-05-07T16:22:55.079Z,10.30
2019-05-07T16:25:24.417Z,10.30
2019-05-07T16:27:53.692Z,10.50
2019-05-07T16:30:23.211Z,10.70
2019-05-07T16:32:55.196Z,11.01
2019-05-07T16:35:23.438Z,10.73
2019-05-07T16:37:52.887Z,9.91
2019-05-07T16:40:23.067Z,9.36
2019-05-07T16:42:52.579Z,9.15
2019-05-07T16:45:22.166Z,9.44
2019-05-07T16:47:52.140Z,9.95
2019-05-07T16:50:22.559Z,10.57
2019-05-07T16:52:52.387Z,10.40
2019-05-07T16:55:23.734Z,9.83
2019-05-07T16:58:04.902Z,9.38
2019-05-07T17:00:45.998Z,9.58
2019-05-07T17:03:20.062Z,9.52
2019-05-07T17:05:49.270Z,9.32
2019-05-07T17:08:42.327Z,8.91
2019-05-07T17:11:12.126Z,8.67
2019-05-07T17:13:42.411Z,8.51
2019-05-07T17:16:12.477Z,8.46
2019-05-07T17:18:42.128Z,8.41
2019-05-07T17:21:12.338Z,8.37
2019-05-07T17:23:44.603Z,8.39
2019-05-07T17:26:12.870Z,8.36
2019-05-07T17:28:42.685Z,8.29
2019-05-07T17:31:12.729Z,8.20
2019-05-07T17:33:42.593Z,8.13
2019-05-07T17:36:12.189Z,8.07
2019-05-07T17:38:42.919Z,8.02
2019-05-07T17:41:19.621Z,7.98
2019-05-07T17:43:43.232Z,7.95
2019-05-07T17:46:12.519Z,7.89
2019-05-07T17:48:42.862Z,7.86
2019-05-07T17:51:34.240Z,7.84
2019-05-07T17:54:03.645Z,7.80
2019-05-07T17:56:32.867Z,7.76
2019-05-07T17:59:02.956Z,7.74
2019-05-07T18:01:57.194Z,7.72
2019-05-07T18:04:26.720Z,7.70
2019-05-07T18:06:55.941Z,7.67
2019-05-07T18:09:25.593Z,7.64
2019-05-07T18:11:54.940Z,7.61
2019-05-07T18:14:24.168Z,7.56
2019-05-07T18:17:15.587Z,7.53
2019-05-07T18:19:47.429Z,7.47
2019-05-07T18:22:17.136Z,7.43
2019-05-07T18:24:46.657Z,7.38
2019-05-07T18:27:22.382Z,7.34
2019-05-07T18:29:52.198Z,7.29
2019-05-07T18:32:22.058Z,7.25
2019-05-07T18:34:51.929Z,7.22
2019-05-07T18:37:22.881Z,7.19
2019-05-07T18:39:52.474Z,7.15
2019-05-07T18:42:22.292Z,7.12
2019-05-07T18:44:52.443Z,7.09
2019-05-07T18:47:22.452Z,7.06
2019-05-07T18:49:52.028Z,7.03
2019-05-07T18:52:22.976Z,7.02
2019-05-07T18:54:53.801Z,6.97
2019-05-07T18:57:23.092Z,6.96
2019-05-07T18:59:53.161Z,6.94
2019-05-07T19:02:22.954Z,6.91
2019-05-07T19:04:52.164Z,6.87
2019-05-07T19:07:23.000Z,6.85
2019-05-07T19:09:52.575Z,6.79
2019-05-07T19:12:24.910Z,6.78
2019-05-07T19:14:54.457Z,6.75
2019-05-07T19:17:25.618Z,6.72
2019-05-07T19:19:54.705Z,6.70
2019-05-07T19:22:24.071Z,6.68
2019-05-07T19:24:53.329Z,6.64
2019-05-07T19:27:22.560Z,6.58
2019-05-07T19:29:51.898Z,6.52
2019-05-07T19:32:22.875Z,6.49
2019-05-07T19:34:53.429Z,6.42
2019-05-07T19:37:22.853Z,6.38
2019-05-07T19:39:52.403Z,6.32
2019-05-07T19:42:21.674Z,6.29
2019-05-07T19:44:51.842Z,6.25
2019-05-07T19:47:23.278Z,6.20
2019-05-07T19:49:52.542Z,6.04
2019-05-07T19:52:23.085Z,6.15
2019-05-07T19:55:01.248Z,6.14
2019-05-07T19:57:33.124Z,6.14
2019-05-07T20:00:03.329Z,6.10
2019-05-07T20:02:37.936Z,6.09
2019-05-07T20:05:07.688Z,6.07
2019-05-07T20:07:37.618Z,6.02
2019-05-07T20:10:08.440Z,5.99
2019-05-07T20:12:37.815Z,5.97
2019-05-07T20:15:07.701Z,5.93
2019-05-07T20:17:37.087Z,5.91
2019-05-07T20:20:07.239Z,5.90
2019-05-07T20:22:36.762Z,5.91
2019-05-07T20:25:16.425Z,5.87
2019-05-07T20:27:38.688Z,5.82
2019-05-07T20:30:12.025Z,5.79
2019-05-07T20:32:42.643Z,5.78
2019-05-07T20:35:12.085Z,5.73
2019-05-07T20:37:41.985Z,5.69
2019-05-07T20:40:12.205Z,5.68
2019-05-07T20:42:42.797Z,5.67
2019-05-07T20:45:12.539Z,5.62
2019-05-07T20:47:42.234Z,5.60
2019-05-07T20:50:12.766Z,5.58
2019-05-07T20:52:42.416Z,5.55
2019-05-07T20:55:34.341Z,5.52
2019-05-07T20:58:03.697Z,5.47
2019-05-07T21:00:32.934Z,5.43
2019-05-07T21:03:23.896Z,5.42
2019-05-07T21:05:53.407Z,5.42
2019-05-07T21:08:23.291Z,5.37
2019-05-07T21:10:53.653Z,5.34
2019-05-07T21:13:30.938Z,5.31
2019-05-07T21:15:54.370Z,5.27
2019-05-07T21:18:23.751Z,5.22
2019-05-07T21:20:53.245Z,5.19
2019-05-07T21:23:23.319Z,5.16
2019-05-07T21:25:53.221Z,5.13
2019-05-07T21:28:22.670Z,5.09
2019-05-07T21:30:52.970Z,5.07
2019-05-07T21:33:23.001Z,5.04
2019-05-07T21:35:52.559Z,5.03
2019-05-07T21:38:22.578Z,5.02
2019-05-07T21:40:51.913Z,4.39
2019-05-07T21:43:22.190Z,4.98
2019-05-07T21:45:52.962Z,4.96
2019-05-07T21:48:22.572Z,4.93
2019-05-07T21:50:52.317Z,4.89
2019-05-07T21:53:32.982Z,4.85
2019-05-07T21:56:12.195Z,4.83
2019-05-07T21:59:03.032Z,4.81
2019-05-07T22:01:36.605Z,4.78
2019-05-07T22:04:06.260Z,4.74
2019-05-07T22:06:35.496Z,4.70
2019-05-07T22:09:07.576Z,4.67
2019-05-07T22:11:36.822Z,4.66
2019-05-07T22:14:06.090Z,4.66
2019-05-07T22:16:35.417Z,4.67
2019-05-07T22:19:04.727Z,4.69
2019-05-07T22:21:34.363Z,4.70
2019-05-07T22:24:03.920Z,4.72
2019-05-07T22:26:33.119Z,4.74
2019-05-07T22:29:03.189Z,4.78
2019-05-07T22:31:52.980Z,4.79
2019-05-07T22:34:56.604Z,4.81
2019-05-07T22:37:25.925Z,4.82
2019-05-07T22:39:55.197Z,4.85
2019-05-07T22:42:24.429Z,4.88
2019-05-07T22:44:53.762Z,4.86
2019-05-07T22:47:23.205Z,4.85
2019-05-07T22:49:53.589Z,4.86
2019-05-07T22:52:23.371Z,4.88
2019-05-07T22:54:52.589Z,4.89
2019-05-07T22:57:41.995Z,4.87
2019-05-07T23:00:15.738Z,4.87
2019-05-07T23:02:45.629Z,4.87
2019-05-07T23:05:14.974Z,4.85
2019-05-07T23:07:44.199Z,4.84
2019-05-07T23:10:13.945Z,4.82
2019-05-07T23:12:43.152Z,4.80
2019-05-07T23:15:12.664Z,4.80
2019-05-07T23:17:42.141Z,4.77
2019-05-07T23:20:11.469Z,4.76
2019-05-07T23:22:42.760Z,4.72
2019-05-07T23:25:14.190Z,4.69
2019-05-07T23:27:43.704Z,4.69
2019-05-07T23:30:15.100Z,4.67
2019-05-07T23:32:44.373Z,4.70
2019-05-07T23:35:13.690Z,4.70
2019-05-07T23:37:44.262Z,4.70
2019-05-07T23:40:20.367Z,4.70
2019-05-07T23:42:52.179Z,4.70
2019-05-07T23:45:22.176Z,4.69
2019-05-07T23:47:51.999Z,4.67
2019-05-07T23:50:21.385Z,4.65
2019-05-07T23:52:52.594Z,4.62
2019-05-07T23:55:22.846Z,4.59
2019-05-07T23:57:52.624Z,4.58
